Time;durP1;ratioP1;P1;durP2;ratioP2;P2;SDS_P1;SDS_P2;PMS_P1;PMS_P2;Temp;Humidity;BMP_temperature;BMP_pressure;BME280_temperature;BME280_humidity;BME280_pressure;Samples;Min_cycle;Max_cycle;Signal;HPM_P1;HPM_P2
2022/01/27 00:01:51;;;;;;;17.63;9.87;;;1.10;99.90;;;1.52;100.00;99430.50;5029672;28;20458;-84
2022/01/27 00:04:35;;;;;;;17.70;10.07;;;1.00;99.90;;;1.45;100.00;99430.03;5042348;28;20520;-85
2022/01/27 00:07:08;;;;;;;21.93;10.77;;;0.90;99.90;;;1.47;100.00;99427.34;5032604;28;20551;-85
2022/01/27 00:12:22;;;;;;;17.80;9.70;;;0.90;99.90;;;1.39;100.00;99425.25;5033481;28;20495;-84
2022/01/27 00:15:07;;;;;;;27.67;12.47;;;0.90;99.90;;;1.41;100.00;99420.84;5033423;28;20635;-84
2022/01/27 00:17:42;;;;;;;18.57;9.80;;;1.00;99.90;;;1.43;100.00;99421.56;5035938;28;20493;-84
2022/01/27 00:20:15;;;;;;;20.90;10.87;;;0.80;99.90;;;1.49;100.00;99416.03;5035093;28;20550;-85
2022/01/27 00:22:47;;;;;;;19.53;9.40;;;1.00;99.90;;;1.49;100.00;99413.44;5030973;28;21012;-85
2022/01/27 00:25:18;;;;;;;21.97;10.97;;;1.10;99.90;;;1.47;100.00;99410.16;5028880;28;20548;-84
2022/01/27 00:27:48;;;;;;;24.93;11.23;;;0.90;99.90;;;1.50;100.00;99409.13;5033463;28;20552;-85
2022/01/27 00:30:19;;;;;;;22.67;10.87;;;0.90;99.90;;;1.55;100.00;99403.69;5031894;28;20462;-85
2022/01/27 00:32:49;;;;;;;21.33;10.30;;;1.00;99.90;;;1.58;100.00;99409.47;5036628;28;20525;-85
2022/01/27 00:35:18;;;;;;;23.90;12.23;;;1.10;99.90;;;1.55;100.00;99408.84;5032038;28;20578;-84
2022/01/27 00:37:50;;;;;;;20.90;10.30;;;1.00;99.90;;;1.45;100.00;99424.06;5034014;28;20532;-84
2022/01/27 00:40:21;;;;;;;21.53;11.87;;;0.90;99.90;;;1.44;100.00;99417.25;5032944;28;20545;-85
2022/01/27 00:42:52;;;;;;;21.10;11.20;;;0.90;99.90;;;1.48;100.00;99414.38;5034310;28;20932;-85
2022/01/27 00:45:23;;;;;;;24.40;11.27;;;1.10;99.90;;;1.51;100.00;99410.78;5035409;28;20497;-84
2022/01/27 00:47:52;;;;;;;19.90;10.53;;;1.00;99.90;;;1.46;100.00;99408.47;5037414;28;20511;-84
2022/01/27 00:50:23;;;;;;;24.30;11.60;;;0.80;99.90;;;1.45;100.00;99406.03;5034533;28;20556;-85
2022/01/27 00:52:57;;;;;;;21.80;11.90;;;0.90;99.90;;;1.52;100.00;99410.69;5038124;28;20778;-84
2022/01/27 00:55:31;;;;;;;19.30;10.47;;;1.00;99.90;;;1.56;100.00;99411.34;5033890;28;20556;-84
2022/01/27 00:58:12;;;;;;;27.07;11.40;;;1.00;99.90;;;1.58;100.00;99408.66;5034281;28;20484;-84
2022/01/27 01:00:52;;;;;;;25.07;11.63;;;1.00;99.90;;;1.58;100.00;99408.66;5033062;28;20466;-84
2022/01/27 01:03:28;;;;;;;23.23;10.60;;;1.00;99.90;;;1.54;100.00;99405.44;5038384;28;20516;-84
2022/01/27 01:09:47;;;;;;;21.50;11.00;;;0.90;99.90;;;1.51;100.00;99403.06;5032327;28;20825;-84
2022/01/27 01:12:48;;;;;;;20.40;10.70;;;0.90;99.90;;;1.46;100.00;99405.91;5035795;28;20562;-84
2022/01/27 01:15:14;;;;;;;22.53;11.17;;;0.80;99.90;;;1.49;100.00;99399.75;5035182;28;20477;-84
2022/01/27 01:17:55;;;;;;;22.30;10.93;;;0.80;99.90;;;1.52;100.00;99402.97;5032216;28;20518;-84
2022/01/27 01:31:48;;;;;;;21.30;10.73;;;1.00;99.90;;;1.64;100.00;99415.97;5032524;28;20462;-84
2022/01/27 01:34:20;;;;;;;20.80;9.87;;;1.00;99.90;;;1.63;100.00;99394.56;5032779;28;20537;-84
2022/01/27 01:36:57;;;;;;;20.10;10.40;;;1.00;99.90;;;1.63;100.00;99384.25;5033819;28;20591;-84
2022/01/27 01:39:33;;;;;;;17.40;9.60;;;1.00;99.90;;;1.65;100.00;99384.13;5033044;28;20519;-84
2022/01/27 01:42:08;;;;;;;20.83;10.50;;;1.10;99.90;;;1.65;100.00;99384.13;5034362;28;20540;-84
2022/01/27 01:44:41;;;;;;;21.37;9.93;;;1.20;99.90;;;1.68;100.00;99383.94;5033515;28;20487;-84
2022/01/27 01:47:12;;;;;;;24.00;10.47;;;1.10;99.90;;;1.68;100.00;99389.09;5030645;28;20466;-84
2022/01/27 01:49:42;;;;;;;20.40;10.13;;;1.10;99.90;;;1.67;100.00;99384.84;5035904;28;20979;-84
2022/01/27 01:52:13;;;;;;;19.23;8.77;;;1.10;99.90;;;1.66;100.00;99393.53;5032714;28;21101;-84
2022/01/27 01:54:43;;;;;;;15.67;9.50;;;1.10;99.90;;;1.64;100.00;99392.78;5033722;28;20499;-84
2022/01/27 01:57:15;;;;;;;24.10;9.23;;;1.10;99.90;;;1.63;100.00;99393.72;5034335;28;20495;-84
2022/01/27 01:59:45;;;;;;;19.07;9.13;;;1.00;99.90;;;1.66;100.00;99391.78;5032602;28;20558;-85
2022/01/27 02:02:16;;;;;;;19.50;8.67;;;1.10;99.90;;;1.70;100.00;99405.31;5034323;28;20965;-84
2022/01/27 02:04:46;;;;;;;17.87;8.40;;;1.10;99.90;;;1.65;100.00;99397.84;5034647;28;20484;-84
2022/01/27 02:07:30;;;;;;;15.37;8.27;;;1.00;99.90;;;1.69;100.00;99407.06;5031262;28;20472;-84
2022/01/27 02:10:13;;;;;;;15.17;8.40;;;1.00;99.90;;;1.69;100.00;99411.38;5034062;28;20505;-84
2022/01/27 02:18:21;;;;;;;17.80;8.87;;;1.10;99.90;;;1.70;100.00;99380.31;5034665;28;20503;-84
2022/01/27 02:20:52;;;;;;;19.50;8.60;;;1.00;99.90;;;1.68;100.00;99376.19;5032851;28;20483;-84
2022/01/27 02:23:23;;;;;;;14.60;7.80;;;0.90;99.90;;;1.71;100.00;99368.25;5033850;28;20515;-84
2022/01/27 02:25:55;;;;;;;21.33;9.00;;;1.10;99.90;;;1.72;100.00;99369.94;5035741;28;20516;-84
2022/01/27 02:28:25;;;;;;;13.50;7.53;;;1.10;99.90;;;1.72;100.00;99360.44;5032422;28;20522;-84
2022/01/27 02:30:56;;;;;;;15.97;8.77;;;1.10;99.90;;;1.68;100.00;99355.56;5032388;28;20923;-84
2022/01/27 02:33:32;;;;;;;14.93;7.10;;;1.00;99.90;;;1.69;100.00;99352.09;5032432;28;20554;-85
2022/01/27 02:36:07;;;;;;;14.83;8.60;;;1.00;99.90;;;1.68;100.00;99347.84;5031671;28;20529;-84
2022/01/27 02:38:37;;;;;;;17.40;7.80;;;1.10;99.90;;;1.69;100.00;99352.91;5032451;28;20501;-85
2022/01/27 02:41:09;;;;;;;14.17;7.20;;;1.10;99.90;;;1.72;100.00;99346.72;5031314;28;20976;-84
2022/01/27 02:43:39;;;;;;;17.53;7.90;;;1.10;99.90;;;1.73;100.00;99346.63;5031953;28;20508;-84
2022/01/27 02:46:20;;;;;;;13.73;7.13;;;1.20;99.90;;;1.72;100.00;99341.56;5030817;28;20970;-85
2022/01/27 02:48:49;;;;;;;18.90;7.30;;;1.10;99.90;;;1.73;100.00;99327.75;5035261;28;20493;-84
2022/01/27 02:51:20;;;;;;;13.43;6.93;;;1.20;99.90;;;1.69;100.00;99321.16;5031601;28;20469;-84
2022/01/27 02:53:51;;;;;;;14.60;7.17;;;1.20;99.90;;;1.69;100.00;99323.72;5035870;28;20464;-85
2022/01/27 02:56:20;;;;;;;13.20;6.90;;;1.20;99.90;;;1.72;100.00;99320.94;5031769;28;20570;-84
2022/01/27 02:58:50;;;;;;;17.10;7.03;;;1.20;99.90;;;1.73;100.00;99330.34;5033742;28;20554;-84
2022/01/27 03:01:22;;;;;;;13.10;6.83;;;1.30;99.90;;;1.68;100.00;99327.22;5033682;28;20500;-85
2022/01/27 03:03:52;;;;;;;17.10;6.80;;;1.20;99.90;;;1.71;100.00;99317.53;5032190;28;20526;-84
2022/01/27 03:06:23;;;;;;;18.43;9.00;;;1.20;99.90;;;1.73;100.00;99320.03;5032812;28;21099;-84
2022/01/27 03:08:53;;;;;;;18.20;8.27;;;1.10;99.90;;;1.73;100.00;99320.88;5035218;28;20571;-85
2022/01/27 03:11:37;;;;;;;11.70;7.10;;;1.10;99.90;;;1.71;100.00;99316.72;5031814;28;20565;-85
2022/01/27 03:14:08;;;;;;;11.63;7.03;;;1.10;99.90;;;1.76;100.00;99320.66;5030718;28;20451;-84
2022/01/27 03:16:38;;;;;;;17.77;8.30;;;1.10;99.90;;;1.79;100.00;99320.44;5033860;28;20516;-84
2022/01/27 03:19:09;;;;;;;15.53;7.67;;;1.20;99.90;;;1.75;100.00;99320.75;5033656;28;20499;-84
2022/01/27 03:21:40;;;;;;;14.77;7.63;;;1.10;99.90;;;1.78;100.00;99323.13;5032269;28;20548;-84
2022/01/27 03:24:10;;;;;;;13.17;6.90;;;1.10;99.90;;;1.70;100.00;99304.78;5032581;28;20468;-84
2022/01/27 03:26:41;;;;;;;16.40;8.07;;;1.00;99.90;;;1.70;100.00;99302.19;5032048;28;20531;-85
2022/01/27 03:29:12;;;;;;;17.50;7.23;;;1.10;99.90;;;1.68;100.00;99304.03;5033964;28;20890;-84
2022/01/27 03:31:42;;;;;;;13.13;7.50;;;1.10;99.90;;;1.65;100.00;99297.31;5030998;28;20483;-85
2022/01/27 03:34:12;;;;;;;14.77;6.67;;;1.00;99.90;;;1.68;100.00;99304.03;5030033;28;20487;-84
2022/01/27 03:36:45;;;;;;;15.57;7.20;;;1.00;99.90;;;1.63;100.00;99290.63;5031636;28;20498;-84
2022/01/27 03:39:19;;;;;;;14.17;6.73;;;1.10;99.90;;;1.63;100.00;99282.91;5030107;28;20491;-84
2022/01/27 03:41:51;;;;;;;14.87;8.17;;;1.00;99.90;;;1.68;100.00;99285.97;5035570;28;20460;-85
2022/01/27 03:44:25;;;;;;;14.83;7.80;;;1.10;99.90;;;1.64;100.00;99279.38;5033200;28;20468;-84
2022/01/27 03:46:56;;;;;;;16.30;7.37;;;1.00;99.90;;;1.68;100.00;99278.25;5032918;28;20556;-84
2022/01/27 03:49:27;;;;;;;13.70;7.03;;;1.10;99.90;;;1.70;100.00;99289.31;5037095;28;20462;-86
2022/01/27 03:52:01;;;;;;;13.00;7.23;;;1.10;99.90;;;1.68;100.00;99286.81;5039060;28;20478;-86
2022/01/27 03:54:31;;;;;;;15.77;6.60;;;1.20;99.90;;;1.66;100.00;99298.16;5039893;28;20466;-86
2022/01/27 03:57:02;;;;;;;11.37;6.87;;;1.20;99.90;;;1.67;100.00;99299.78;5038434;28;20526;-86
2022/01/27 03:59:32;;;;;;;13.77;7.27;;;1.20;99.90;;;1.68;100.00;99306.59;5036034;28;20596;-86
2022/01/27 04:02:04;;;;;;;13.87;6.60;;;1.20;99.90;;;1.68;100.00;99312.59;5039932;28;20463;-86
2022/01/27 04:04:35;;;;;;;16.67;6.83;;;1.30;99.90;;;1.71;100.00;99308.97;5040140;28;20461;-85
2022/01/27 04:07:07;;;;;;;11.33;6.70;;;1.20;99.90;;;1.72;100.00;99301.16;5040933;28;20453;-86
2022/01/27 04:09:36;;;;;;;12.20;6.33;;;1.10;99.90;;;1.74;100.00;99293.31;5039092;28;20530;-86
2022/01/27 04:12:07;;;;;;;11.80;6.80;;;1.20;99.90;;;1.74;100.00;99290.72;5035232;28;20492;-86
2022/01/27 04:14:38;;;;;;;9.30;5.87;;;1.10;99.90;;;1.74;100.00;99288.16;5037864;28;20967;-86
2022/01/27 04:17:12;;;;;;;14.53;7.17;;;1.10;99.90;;;1.77;100.00;99290.56;5036288;28;20569;-85
2022/01/27 04:19:43;;;;;;;15.67;6.50;;;1.20;99.90;;;1.78;100.00;99287.03;5036610;28;20546;-85
2022/01/27 04:22:15;;;;;;;14.67;7.20;;;1.30;99.90;;;1.79;100.00;99291.25;5037961;28;20476;-86
2022/01/27 04:24:46;;;;;;;15.33;6.97;;;1.30;99.90;;;1.73;100.00;99289.09;5034428;28;20545;-86
2022/01/27 04:27:19;;;;;;;13.00;7.10;;;1.30;99.90;;;1.76;100.00;99299.19;5034323;28;20465;-87
2022/01/27 04:29:50;;;;;;;11.23;6.83;;;1.30;99.90;;;1.75;100.00;99305.28;5037019;28;20460;-86
2022/01/27 04:32:25;;;;;;;15.67;7.20;;;1.20;99.90;;;1.78;100.00;99312.81;5036011;28;20524;-86
2022/01/27 04:35:00;;;;;;;13.03;7.17;;;1.20;99.90;;;1.79;100.00;99309.31;5032627;28;20463;-87
2022/01/27 04:37:40;;;;;;;12.10;7.03;;;1.20;99.90;;;1.80;100.00;99310.97;5032819;28;20504;-85
2022/01/27 04:40:15;;;;;;;20.80;6.10;;;1.20;99.90;;;1.83;100.00;99315.91;5034348;28;21002;-86
2022/01/27 04:42:59;;;;;;;12.33;7.20;;;1.20;99.90;;;1.79;100.00;99315.28;5037448;28;20456;-85
2022/01/27 04:45:36;;;;;;;11.43;6.53;;;1.10;99.90;;;1.81;100.00;99307.44;5035270;28;20505;-86
2022/01/27 04:48:12;;;;;;;13.23;6.07;;;1.20;99.90;;;1.81;100.00;99307.44;5034586;28;20543;-87
2022/01/27 04:50:43;;;;;;;14.30;7.20;;;1.20;99.90;;;1.79;100.00;99302.41;5035802;28;20991;-86
2022/01/27 04:53:20;;;;;;;14.30;6.33;;;1.20;99.90;;;1.82;100.00;99307.34;5034803;28;20472;-86
2022/01/27 04:56:03;;;;;;;12.40;6.80;;;1.20;99.90;;;1.74;100.00;99291.56;5032682;28;20467;-87
2022/01/27 04:58:39;;;;;;;22.70;11.00;;;1.20;99.90;;;1.73;100.00;99291.66;5036057;28;20535;-89
2022/01/27 05:01:08;;;;;;;13.13;6.43;;;1.00;99.90;;;1.72;100.00;99292.59;5033266;28;20471;-85
2022/01/27 05:03:43;;;;;;;16.47;6.40;;;1.20;99.90;;;1.72;100.00;99293.41;5033560;28;20559;-85
2022/01/27 05:06:13;;;;;;;15.53;6.57;;;1.30;99.90;;;1.66;100.00;99293.00;5033317;28;20538;-85
2022/01/27 05:08:45;;;;;;;17.37;7.40;;;1.10;99.90;;;1.69;100.00;99288.47;5033763;28;20463;-86
2022/01/27 05:11:22;;;;;;;12.77;5.83;;;1.20;99.90;;;1.74;100.00;99280.41;5040716;28;20495;-74
2022/01/27 05:13:55;;;;;;;17.93;8.20;;;1.20;99.90;;;1.71;100.00;99278.03;5036330;28;20464;-73
2022/01/27 05:16:27;;;;;;;13.97;6.90;;;1.10;99.90;;;1.74;100.00;99278.66;5032296;28;20503;-74
2022/01/27 05:18:57;;;;;;;14.80;6.40;;;1.20;99.90;;;1.81;100.00;99276.50;5028945;28;20469;-74
2022/01/27 05:21:28;;;;;;;9.60;5.90;;;1.20;99.90;;;1.82;100.00;99273.00;5031589;28;20464;-74
2022/01/27 05:23:58;;;;;;;12.00;5.93;;;1.20;99.90;;;1.85;100.00;99258.16;5031993;28;20798;-74
2022/01/27 05:26:28;;;;;;;9.63;6.03;;;1.50;99.90;;;1.88;100.00;99262.28;5035903;28;20472;-74
2022/01/27 05:28:58;;;;;;;11.23;6.53;;;1.30;99.90;;;1.91;100.00;99262.91;5035462;28;20501;-73
2022/01/27 05:31:28;;;;;;;11.37;5.43;;;1.30;99.90;;;1.91;100.00;99244.00;5043225;28;20977;-73
2022/01/27 05:33:58;;;;;;;13.37;5.97;;;1.30;99.90;;;1.91;100.00;99250.00;5035716;28;20467;-74
2022/01/27 05:36:27;;;;;;;11.60;6.30;;;1.30;99.90;;;1.91;100.00;99244.00;5039113;28;20559;-74
2022/01/27 05:38:56;;;;;;;11.07;6.57;;;1.30;99.90;;;1.93;100.00;99249.91;5038404;28;22641;-75
2022/01/27 05:41:27;;;;;;;10.50;5.37;;;1.30;99.90;;;1.97;100.00;99261.69;5037669;28;20551;-74
2022/01/27 05:43:55;;;;;;;16.83;6.50;;;1.50;99.90;;;1.99;100.00;99260.63;5037684;28;20499;-74
2022/01/27 05:46:25;;;;;;;14.30;6.37;;;1.50;99.90;;;2.00;100.00;99264.06;5035456;28;20951;-74
2022/01/27 05:48:55;;;;;;;10.70;5.40;;;1.60;99.90;;;1.99;100.00;99265.81;5037714;28;20458;-74
2022/01/27 05:51:25;;;;;;;14.13;6.83;;;1.50;99.90;;;1.99;100.00;99264.97;5038005;28;20465;-75
2022/01/27 05:53:55;;;;;;;11.43;5.80;;;1.40;99.90;;;2.01;100.00;99268.28;5036017;28;20462;-74
2022/01/27 05:56:23;;;;;;;12.87;5.47;;;1.40;99.90;;;2.02;100.00;99254.44;5033450;28;20859;-74
2022/01/27 05:58:55;;;;;;;14.53;6.30;;;1.40;99.90;;;2.02;100.00;99255.28;5038433;28;21000;-74
2022/01/27 06:01:25;;;;;;;16.47;6.73;;;1.40;99.90;;;2.04;100.00;99257.75;5037147;28;20821;-73
2022/01/27 06:03:56;;;;;;;10.17;5.80;;;1.40;99.90;;;2.04;100.00;99257.75;5034446;28;21005;-73
2022/01/27 06:06:26;;;;;;;14.37;6.67;;;1.40;99.90;;;2.06;100.00;99250.72;5036027;28;20488;-74
2022/01/27 06:08:55;;;;;;;13.53;6.30;;;1.40;99.90;;;2.09;100.00;99247.09;5042176;28;21289;-73
2022/01/27 06:11:25;;;;;;;12.37;6.53;;;1.40;99.90;;;2.08;100.00;99235.16;5030333;28;20889;-74
2022/01/27 06:13:57;;;;;;;14.07;6.17;;;1.40;99.90;;;2.08;100.00;99228.25;5030715;28;20465;-74
2022/01/27 06:16:26;;;;;;;11.57;5.87;;;1.40;99.90;;;2.08;100.00;99233.41;5031312;28;20518;-74
2022/01/27 06:18:56;;;;;;;9.90;6.17;;;1.40;99.90;;;2.09;100.00;99222.16;5034380;28;20531;-73
2022/01/27 06:21:26;;;;;;;15.70;6.73;;;1.40;99.90;;;2.09;100.00;99227.31;5033573;28;20472;-73
2022/01/27 06:23:57;;;;;;;13.90;6.63;;;1.40;99.90;;;2.07;100.00;99226.59;5032999;28;20476;-73
2022/01/27 06:26:28;;;;;;;16.07;7.23;;;1.40;99.90;;;2.09;100.00;99234.22;5028780;28;20468;-74
2022/01/27 06:29:00;;;;;;;14.50;6.90;;;1.50;99.90;;;2.09;100.00;99235.03;5031783;28;20467;-74
2022/01/27 06:31:31;;;;;;;11.53;6.90;;;1.50;99.90;;;2.11;100.00;99233.19;5036252;28;20488;-74
2022/01/27 06:34:02;;;;;;;13.90;7.60;;;1.60;99.90;;;2.08;100.00;99230.00;5037454;28;20858;-74
2022/01/27 06:36:32;;;;;;;19.10;7.77;;;1.40;99.90;;;2.06;100.00;99239.59;5035093;28;20468;-74
2022/01/27 06:39:02;;;;;;;18.03;6.80;;;1.40;99.90;;;2.04;100.00;99237.13;5029128;28;20480;-74
2022/01/27 06:41:33;;;;;;;14.90;7.57;;;1.40;99.90;;;2.02;100.00;99242.38;5039306;28;20879;-73
2022/01/27 06:44:06;;;;;;;15.03;7.20;;;1.40;99.90;;;2.05;100.00;99232.78;5034318;28;20969;-74
2022/01/27 06:46:36;;;;;;;19.93;8.07;;;1.40;99.90;;;2.10;100.00;99235.88;5034887;28;20501;-74
2022/01/27 06:49:06;;;;;;;19.90;8.07;;;1.60;99.90;;;2.09;100.00;99232.47;5035572;28;20468;-73
2022/01/27 06:51:37;;;;;;;14.70;7.87;;;1.50;99.90;;;2.13;100.00;99244.22;5033663;28;20853;-74
2022/01/27 06:54:05;;;;;;;19.83;7.70;;;1.50;99.90;;;2.13;100.00;99236.50;5028565;28;20494;-73
2022/01/27 06:56:37;;;;;;;16.10;8.07;;;1.50;99.90;;;2.15;100.00;99250.13;5033808;28;20472;-74
2022/01/27 06:59:10;;;;;;;18.00;8.03;;;1.50;99.90;;;2.18;100.00;99249.09;5037997;28;20472;-74
2022/01/27 07:01:40;;;;;;;14.10;7.10;;;1.50;99.90;;;2.17;100.00;99243.09;5034007;28;20479;-74
2022/01/27 07:04:09;;;;;;;14.73;7.70;;;1.50;99.90;;;2.17;100.00;99237.94;5028310;28;20565;-74
2022/01/27 07:06:40;;;;;;;15.93;7.80;;;1.50;99.90;;;2.17;100.00;99227.63;5031336;28;20492;-74
2022/01/27 07:09:10;;;;;;;15.10;7.83;;;1.50;99.90;;;2.19;100.00;99232.66;5035372;28;20556;-74
2022/01/27 07:11:40;;;;;;;19.77;8.50;;;1.60;99.90;;;2.19;100.00;99232.66;5032526;28;20492;-74
2022/01/27 07:14:12;;;;;;;21.20;7.50;;;1.50;99.90;;;2.21;100.00;99234.22;5039619;28;21005;-74
2022/01/27 07:16:43;;;;;;;19.83;8.70;;;1.60;99.90;;;2.23;100.00;99227.19;5039706;28;20474;-74
2022/01/27 07:19:14;;;;;;;20.37;8.47;;;1.60;99.90;;;2.20;100.00;99227.41;5032450;28;21027;-73
2022/01/27 07:21:43;;;;;;;17.37;9.40;;;1.70;99.90;;;2.21;100.00;99236.81;5031337;28;20518;-74
2022/01/27 07:24:13;;;;;;;18.43;8.80;;;1.60;99.90;;;2.23;100.00;99231.53;5040283;28;20475;-74
2022/01/27 07:26:42;;;;;;;19.50;8.93;;;1.60;99.90;;;2.21;100.00;99225.66;5038527;28;20547;-73
2022/01/27 07:29:14;;;;;;;19.67;8.60;;;1.60;99.90;;;2.20;100.00;99219.66;5036654;28;20907;-74
2022/01/27 07:31:43;;;;;;;15.17;6.83;;;1.70;99.90;;;2.20;100.00;99224.00;5039346;28;20460;-74
2022/01/27 07:34:13;;;;;;;17.47;9.50;;;1.60;99.90;;;2.22;100.00;99219.56;5040255;28;20861;-76
2022/01/27 07:36:44;;;;;;;21.90;8.17;;;1.60;99.90;;;2.20;100.00;99217.09;5037368;28;20493;-74
2022/01/27 07:39:16;;;;;;;14.40;7.97;;;1.60;99.90;;;2.19;100.00;99220.59;5039727;28;20472;-74
2022/01/27 07:41:47;;;;;;;17.00;9.20;;;1.50;99.90;;;2.20;100.00;99222.25;5043387;28;20962;-74
2022/01/27 07:44:18;;;;;;;15.27;7.57;;;1.50;99.90;;;2.17;100.00;99212.13;5035943;28;20546;-74
2022/01/27 07:49:25;;;;;;;17.03;8.40;;;1.50;99.90;;;2.20;100.00;99216.25;5094722;22;20500;-74
2022/01/27 07:51:56;;;;;;;18.87;8.03;;;1.50;99.90;;;2.21;100.00;99210.16;5013855;28;20945;-74
2022/01/27 07:54:25;;;;;;;14.57;6.97;;;1.60;99.90;;;2.23;100.00;99206.53;5020266;28;20475;-74
2022/01/27 07:56:55;;;;;;;21.70;8.57;;;1.70;99.90;;;2.21;100.00;99203.25;5011568;28;20991;-73
2022/01/27 07:59:27;;;;;;;14.10;6.80;;;1.70;99.90;;;2.17;100.00;99198.41;5013572;28;20835;-74
2022/01/27 08:01:58;;;;;;;11.73;6.47;;;1.60;99.90;;;2.17;100.00;99204.41;5024902;28;20458;-73
2022/01/27 08:04:30;;;;;;;15.23;6.90;;;1.60;99.90;;;2.16;100.00;99197.59;5025466;28;20476;-74
2022/01/27 08:07:02;;;;;;;15.20;5.87;;;1.60;99.90;;;2.19;100.00;99201.69;5014153;28;20460;-74
2022/01/27 08:09:32;;;;;;;15.17;7.03;;;1.70;99.90;;;2.20;100.00;99205.94;5014888;28;20821;-75
2022/01/27 08:12:01;;;;;;;10.90;6.20;;;1.70;99.90;;;2.19;100.00;99210.25;5016530;28;20791;-75
2022/01/27 08:14:32;;;;;;;13.20;6.90;;;1.70;99.90;;;2.19;100.00;99205.09;5012918;28;20474;-74
2022/01/27 08:17:03;;;;;;;13.70;6.77;;;1.70;99.90;;;2.21;100.00;99205.00;5017609;28;20949;-74
2022/01/27 08:19:32;;;;;;;15.83;7.27;;;1.70;99.90;;;2.20;100.00;99199.03;5014003;28;20462;-77
2022/01/27 08:22:01;;;;;;;17.60;7.53;;;1.70;99.90;;;2.15;100.00;99202.88;5012889;28;20477;-74
2022/01/27 08:24:32;;;;;;;12.57;6.67;;;1.70;99.90;;;2.16;100.00;99201.91;5015745;28;20895;-74
2022/01/27 08:27:04;;;;;;;12.10;6.90;;;1.70;99.90;;;2.17;100.00;99191.50;5014557;28;20547;-74
2022/01/27 08:30:01;;;;;;;12.00;6.97;;;1.60;99.90;;;2.15;100.00;99190.78;5013372;28;20934;-74
2022/01/27 08:32:45;;;;;;;12.73;6.53;;;1.60;99.90;;;2.17;100.00;99185.50;5011767;28;20814;-74
2022/01/27 08:35:16;;;;;;;12.90;6.13;;;1.60;99.90;;;2.18;100.00;99190.56;5011503;28;20473;-73
2022/01/27 08:37:46;;;;;;;12.63;6.80;;;1.70;99.90;;;2.18;100.00;99192.31;5015408;28;20486;-74
2022/01/27 08:40:17;;;;;;;14.93;6.80;;;1.70;99.90;;;2.20;100.00;99196.44;5014801;28;20560;-74
2022/01/27 08:43:07;;;;;;;13.00;6.63;;;1.80;99.90;;;2.09;100.00;99204.09;5015698;28;20467;-74
2022/01/27 08:45:42;;;;;;;14.23;7.27;;;1.70;99.90;;;2.10;100.00;99205.75;5016158;28;20458;-74
2022/01/27 08:48:33;;;;;;;14.30;6.37;;;1.60;99.90;;;2.11;100.00;99207.41;5011327;28;20871;-74
2022/01/27 08:51:09;;;;;;;14.43;6.43;;;1.60;99.90;;;2.14;100.00;99214.94;5010151;28;20961;-74
2022/01/27 08:53:51;;;;;;;16.53;6.70;;;1.70;99.90;;;2.17;100.00;99206.97;5010692;28;21149;-74
2022/01/27 08:56:21;;;;;;;88.00;34.40;;;1.70;99.90;;;2.17;100.00;99206.16;5011114;28;20453;-74
2022/01/27 08:58:51;;;;;;;15.43;7.70;;;1.70;99.90;;;2.13;100.00;99200.38;5011718;28;20573;-74
2022/01/27 09:01:23;;;;;;;18.53;7.27;;;1.60;99.90;;;2.14;100.00;99207.19;5009362;28;21044;-73
2022/01/27 09:03:53;;;;;;;10.20;5.90;;;1.60;99.90;;;2.15;100.00;99211.44;5011591;28;20466;-74
2022/01/27 09:06:23;;;;;;;17.23;6.60;;;1.70;99.90;;;2.17;100.00;99209.56;5010589;28;20985;-74
2022/01/27 09:08:54;;;;;;;11.00;6.10;;;1.60;99.90;;;2.21;100.00;99223.91;5010712;28;20524;-74
2022/01/27 09:11:24;;;;;;;14.90;7.23;;;1.60;99.90;;;2.25;100.00;99203.88;5006060;28;21042;-74
2022/01/27 09:14:14;;;;;;;14.77;7.10;;;1.70;99.90;;;2.27;100.00;99210.56;5014303;28;20818;-74
2022/01/27 09:16:46;;;;;;;13.40;6.50;;;1.70;99.90;;;2.28;100.00;99208.81;5014630;28;20550;-73
2022/01/27 09:19:18;;;;;;;13.73;7.57;;;1.70;99.90;;;2.28;100.00;99201.91;5015632;28;20478;-74
2022/01/27 09:21:48;;;;;;;14.03;6.63;;;1.80;99.90;;;2.26;100.00;99200.34;5016517;28;20495;-74
2022/01/27 09:24:29;;;;;;;15.03;6.83;;;1.70;99.90;;;2.30;100.00;99199.19;5015788;28;20443;-74
2022/01/27 09:27:02;;;;;;;13.40;6.93;;;1.70;99.90;;;2.26;100.00;99201.16;5015132;28;20512;-74
2022/01/27 09:29:31;;;;;;;16.40;6.60;;;1.80;99.90;;;2.26;100.00;99213.25;5016052;28;20467;-74
2022/01/27 09:32:03;;;;;;;13.23;6.53;;;1.80;99.90;;;2.22;100.00;99207.47;5015399;28;20967;-74
2022/01/27 09:34:34;;;;;;;16.23;7.20;;;1.70;99.90;;;2.26;100.00;99205.50;5015280;28;20515;-74
2022/01/27 09:37:04;;;;;;;14.53;6.30;;;1.70;99.90;;;2.28;100.00;99208.81;5015593;28;20818;-74
2022/01/27 09:39:35;;;;;;;17.70;7.07;;;1.70;99.90;;;2.33;100.00;99196.41;5014324;28;20461;-74
2022/01/27 09:42:07;;;;;;;13.50;6.60;;;1.80;99.90;;;2.37;100.00;99193.50;5014917;28;20483;-74
2022/01/27 09:44:40;;;;;;;13.10;7.60;;;1.80;99.90;;;2.35;100.00;99202.31;5014880;28;20508;-73
2022/01/27 09:47:16;;;;;;;12.37;7.20;;;1.90;99.90;;;2.34;100.00;99196.31;5014699;28;20814;-74
2022/01/27 09:49:52;;;;;;;17.07;6.57;;;1.90;99.90;;;2.31;100.00;99183.63;5014558;28;21024;-75
2022/01/27 09:52:22;;;;;;;13.93;7.20;;;1.80;99.90;;;2.32;100.00;99180.13;5014508;28;20449;-74
2022/01/27 09:54:52;;;;;;;10.80;6.30;;;1.80;99.90;;;2.35;100.00;99185.06;5014800;28;20452;-74
2022/01/27 09:57:22;;;;;;;12.70;6.63;;;1.80;99.90;;;2.41;100.00;99184.63;5014656;28;20497;-74
2022/01/27 09:59:52;;;;;;;15.10;7.20;;;1.90;99.90;;;2.44;100.00;99173.25;5013287;28;20451;-74
2022/01/27 10:02:26;;;;;;;12.30;5.97;;;1.90;99.90;;;2.42;100.00;99170.81;5015425;28;20956;-74
2022/01/27 10:04:59;;;;;;;15.10;6.53;;;1.90;99.90;;;2.44;100.00;99184.41;5014028;28;20523;-74
2022/01/27 10:07:39;;;;;;;14.00;7.03;;;2.00;99.90;;;2.36;100.00;99166.06;5015073;28;21004;-74
2022/01/27 10:10:16;;;;;;;12.53;6.00;;;1.80;99.90;;;2.46;100.00;99176.56;5013681;28;20566;-74
2022/01/27 10:12:53;;;;;;;14.23;6.43;;;1.90;99.90;;;2.41;100.00;99178.63;5015404;28;20481;-75
2022/01/27 10:15:26;;;;;;;9.00;5.10;;;1.90;99.90;;;2.47;100.00;99179.03;5014921;28;20446;-74
2022/01/27 10:18:11;;;;;;;18.30;6.90;;;2.00;99.90;;;2.47;100.00;99173.88;5014962;28;20465;-74
2022/01/27 10:20:44;;;;;;;12.67;6.37;;;2.00;99.90;;;2.46;100.00;99167.03;5010903;28;20476;-74
2022/01/27 10:23:39;;;;;;;12.93;7.07;;;2.00;99.90;;;2.50;100.00;99176.22;5012662;28;20834;-74
2022/01/27 10:26:21;;;;;;;17.53;6.60;;;2.00;99.90;;;2.48;100.00;99165.19;5012475;28;20547;-74
2022/01/27 10:29:01;;;;;;;8.77;5.33;;;2.00;99.90;;;2.37;100.00;99161.72;5014394;28;20924;-74
2022/01/27 10:31:32;;;;;;;16.03;8.47;;;1.90;99.90;;;2.39;100.00;99170.19;5012458;28;20449;-74
2022/01/27 10:34:07;;;;;;;14.27;7.60;;;1.90;99.90;;;2.43;100.00;99154.38;5011963;28;20524;-74
2022/01/27 10:36:40;;;;;;;15.97;7.47;;;2.00;99.90;;;2.46;100.00;99155.94;5012292;28;20954;-74
2022/01/27 10:39:12;;;;;;;14.83;6.50;;;2.00;99.90;;;2.46;100.00;99156.72;5011330;28;20447;-74
2022/01/27 10:41:59;;;;;;;14.47;6.27;;;2.00;99.90;;;2.40;100.00;99158.91;5012766;28;20486;-74
2022/01/27 10:44:37;;;;;;;14.27;6.67;;;1.90;99.90;;;2.30;100.00;99163.06;5014134;28;20461;-74
2022/01/27 10:47:15;;;;;;;16.43;7.93;;;1.80;99.90;;;2.26;100.00;99162.47;5014620;28;20456;-74
2022/01/27 10:49:51;;;;;;;14.10;7.57;;;1.80;99.90;;;2.31;100.00;99170.72;5015186;28;20445;-75
2022/01/27 10:52:32;;;;;;;19.03;7.40;;;1.80;99.90;;;2.34;100.00;99170.50;5015252;28;20875;-74
2022/01/27 10:55:08;;;;;;;16.00;7.27;;;1.90;99.90;;;2.25;100.00;99163.41;5020699;28;21412;-74
2022/01/27 10:57:38;;;;;;;13.77;7.33;;;1.70;99.90;;;2.22;100.00;99160.22;5019044;28;20447;-74
2022/01/27 11:00:15;;;;;;;17.73;7.73;;;1.70;99.90;;;2.21;100.00;99150.84;5019416;28;20947;-74
2022/01/27 11:02:54;;;;;;;14.80;7.90;;;1.80;99.90;;;2.24;100.00;99161.75;5019763;28;20506;-75
2022/01/27 11:05:29;;;;;;;15.67;7.37;;;1.80;99.90;;;2.26;100.00;99157.31;5016123;28;20507;-74
2022/01/27 11:07:59;;;;;;;17.93;7.97;;;1.80;99.90;;;2.25;100.00;99172.91;5019462;28;20484;-74